Tampa International Airport Tampa US
ICAO: KTPA
IATA: TPA
Category: Large
Scheduled Services: Yes

Elevation: 26 ft
TransAlt. 18000 ft.

Airport Communications:
APP/DEP:118.15
ATIS:126.45
CLNC DEL:133.6
GND:121.7
TWR:119.5
UNICOM:122.95

KTPA Zoom In..

Runways:

(A) RW 01L length 11002 ft width 150 ft
ILS 108.90 / hdg 7

(B) RW 01R length 8300 ft width 150 ft
LOC 111.95 / hdg 7

(C) RW 10 length 6999 ft width 150 ft
LOC 111.95 / hdg 97

(D) RW 19L length 8300 ft width 150 ft
ILS 110.30 / hdg 187

(E) RW 19R length 11002 ft width 150 ft
ILS 108.50 / hdg 187

(F) RW 28 length 6999 ft width 150 ft
LOC 111.95 / hdg 277

Location; KTPA
Day. 05 / Time. 17.53 Zulu
* Altimeter: 30.03
* Temperature: 31° c. 87.8°f.
* Wind from: KTP° Speed A kn.
Dewpoint: 20° c.
Visibility: 10 Statute Miles.
Clouds: Few 4000 ft.
Clouds: Broken 9000 ft.
Clouds: Overcast 15000 ft.

KTPA 051753Z 15004KT 10SM FEW040 BKN090 OVC150 31/20 A3003 RMK AO2 SLP168 T03110200 10317 20244 58012


Wind From KTP°
Speed A kn.

 
 
jpsmedia worldairports.se 2020   terms of use